Time;durP1;ratioP1;P1;durP2;ratioP2;P2;SDS_P1;SDS_P2;PMS_P1;PMS_P2;Temp;Humidity;BMP_temperature;BMP_pressure;BME280_temperature;BME280_humidity;BME280_pressure;Samples;Min_cycle;Max_cycle;Signal;HPM_P1;HPM_P2
2024/04/16 00:02:35;;;;;;;5.20;0.70;;;;;;;9.01;100.00;98618.88;177102;1268;59242;-84
2024/04/16 00:06:38;;;;;;;4.50;0.60;;;;;;;8.93;100.00;98621.97;176369;1267;46064;-83
2024/04/16 00:10:41;;;;;;;2.60;0.50;;;;;;;8.90;100.00;98630.41;176876;1268;45995;-83
2024/04/16 00:14:44;;;;;;;0.40;0.20;;;;;;;8.79;100.00;98626.32;176864;1267;45983;-82
2024/04/16 00:18:47;;;;;;;2.10;0.70;;;;;;;8.68;100.00;98620.55;176576;1263;46097;-84
2024/04/16 00:22:50;;;;;;;1.50;1.10;;;;;;;8.56;100.00;98630.69;176668;1263;59279;-82
2024/04/16 00:26:53;;;;;;;2.10;1.00;;;;;;;8.53;100.00;98635.48;176826;1267;46154;-82
2024/04/16 00:30:56;;;;;;;2.60;0.50;;;;;;;8.55;100.00;98642.04;177222;1263;46017;-84
2024/04/16 00:34:59;;;;;;;1.50;0.20;;;;;;;8.24;100.00;98652.91;177248;1262;46170;-84
2024/04/16 00:39:02;;;;;;;5.90;0.70;;;;;;;7.93;100.00;98647.13;176560;1263;46693;-83
2024/04/16 00:43:16;;;;;;;2.40;0.20;;;;;;;7.77;100.00;98659.23;176699;1266;57965;-83
2024/04/16 00:47:19;;;;;;;0.40;0.40;;;;;;;7.61;100.00;98661.26;176512;1263;46122;-83
2024/04/16 00:51:22;;;;;;;6.80;0.60;;;;;;;7.51;100.00;98689.92;176851;1263;46100;-82
2024/04/16 00:55:25;;;;;;;2.40;1.00;;;;;;;7.37;100.00;98687.46;176782;1265;46001;-83
2024/04/16 00:59:29;;;;;;;0.30;0.30;;;;;;;7.23;100.00;98675.00;176816;1266;45987;-81
2024/04/16 01:03:32;;;;;;;3.20;0.80;;;;;;;7.07;100.00;98689.44;176665;1263;57894;-82
2024/04/16 01:07:35;;;;;;;1.20;0.70;;;;;;;6.92;100.00;98688.30;176530;1263;46122;-83
2024/04/16 01:11:38;;;;;;;2.70;0.50;;;;;;;6.79;100.00;98688.75;177056;1262;46054;-80
2024/04/16 01:15:41;;;;;;;1.30;0.50;;;;;;;6.67;100.00;98695.70;176411;1262;46072;-86
2024/04/16 01:19:43;;;;;;;0.50;0.30;;;;;;;6.65;100.00;98718.58;177482;1264;46162;-83
2024/04/16 01:23:46;;;;;;;1.50;0.50;;;;;;;6.57;100.00;98720.14;176707;1267;58240;-84
2024/04/16 01:27:49;;;;;;;2.30;1.40;;;;;;;6.44;100.00;98728.91;176553;1262;46028;-84
2024/04/16 01:31:52;;;;;;;4.50;1.20;;;;;;;6.30;100.00;98725.56;176651;1265;46057;-83
2024/04/16 01:35:55;;;;;;;1.40;1.20;;;;;;;6.24;100.00;98730.33;176899;1265;46155;-84
2024/04/16 01:39:58;;;;;;;3.40;2.40;;;;;;;6.11;100.00;98731.73;177358;1262;45998;-83
2024/04/16 01:44:02;;;;;;;4.50;2.60;;;;;;;6.00;100.00;98728.50;176412;1266;58448;-83
2024/04/16 01:48:05;;;;;;;5.00;2.10;;;;;;;5.94;100.00;98741.17;177275;1263;46135;-83
2024/04/16 01:52:08;;;;;;;4.50;2.70;;;;;;;5.85;100.00;98740.26;176802;1267;46193;-83
2024/04/16 01:56:12;;;;;;;9.80;3.50;;;;;;;5.83;100.00;98733.25;176888;1263;46129;-83
2024/04/16 02:00:15;;;;;;;4.70;3.00;;;;;;;5.73;100.00;98724.12;176835;1265;46213;-81
2024/04/16 02:04:18;;;;;;;7.00;3.30;;;;;;;5.67;100.00;98715.14;176732;1263;57894;-84
2024/04/16 02:08:21;;;;;;;6.40;3.20;;;;;;;5.64;100.00;98708.20;176717;1265;46098;-82
2024/04/16 02:12:24;;;;;;;2.60;1.60;;;;;;;5.59;100.00;98709.34;176722;1263;46192;-83
2024/04/16 02:16:27;;;;;;;2.40;1.80;;;;;;;5.56;100.00;98720.32;176974;1264;46173;-83
2024/04/16 02:20:30;;;;;;;3.20;2.50;;;;;;;5.45;100.00;98728.40;176920;1264;46562;-83
2024/04/16 02:24:32;;;;;;;3.70;2.10;;;;;;;5.39;100.00;98733.16;176720;1266;58337;-84
2024/04/16 02:28:35;;;;;;;3.60;1.50;;;;;;;5.34;100.00;98724.10;176574;1264;46127;-82
2024/04/16 02:32:38;;;;;;;2.70;2.20;;;;;;;5.32;100.00;98736.77;176805;1265;46742;-84
2024/04/16 02:36:41;;;;;;;20.70;2.80;;;;;;;5.32;100.00;98741.84;176554;1262;46089;-84
2024/04/16 02:40:44;;;;;;;3.00;1.70;;;;;;;5.32;100.00;98732.73;176462;1266;46017;-83
2024/04/16 02:44:47;;;;;;;5.40;2.00;;;;;;;5.26;100.00;98723.48;176968;1263;58299;-83
2024/04/16 02:48:50;;;;;;;2.20;1.70;;;;;;;5.23;100.00;98708.00;176670;1264;46134;-83
2024/04/16 02:52:53;;;;;;;6.70;2.30;;;;;;;5.16;100.00;98704.35;176708;1263;46011;-83
2024/04/16 02:56:56;;;;;;;4.80;1.90;;;;;;;5.08;100.00;98718.67;176640;1266;46007;-83
2024/04/16 03:01:06;;;;;;;3.60;2.60;;;;;;;5.03;100.00;98728.28;176839;1264;45996;-82
2024/04/16 03:05:09;;;;;;;6.80;1.40;;;;;;;5.04;100.00;98727.70;176999;1264;59653;-82
2024/04/16 03:09:12;;;;;;;3.30;2.90;;;;;;;5.13;100.00;98728.70;177147;1263;46180;-83
2024/04/16 03:13:15;;;;;;;4.00;1.60;;;;;;;5.28;100.00;98725.52;176791;1262;46033;-82
2024/04/16 03:17:18;;;;;;;4.60;3.80;;;;;;;5.44;100.00;98732.01;177129;1266;46020;-83
2024/04/16 03:21:21;;;;;;;2.30;1.70;;;;;;;5.60;100.00;98723.12;177347;1264;46118;-83
2024/04/16 03:25:27;;;;;;;4.00;1.90;;;;;;;5.73;100.00;98733.09;176505;1266;59097;-81
2024/04/16 03:29:30;;;;;;;2.40;1.80;;;;;;;5.88;100.00;98732.84;177155;1264;46044;-83
2024/04/16 03:33:33;;;;;;;2.40;2.20;;;;;;;5.95;100.00;98739.63;176851;1263;46004;-83
2024/04/16 03:37:36;;;;;;;1.60;1.40;;;;;;;5.97;100.00;98736.84;176656;1265;46188;-80
2024/04/16 03:41:39;;;;;;;4.50;1.60;;;;;;;5.94;100.00;98742.05;176415;1267;46063;-84
2024/04/16 03:45:42;;;;;;;3.80;1.90;;;;;;;5.78;100.00;98752.19;177072;1264;59382;-82
2024/04/16 03:49:45;;;;;;;4.90;1.90;;;;;;;5.72;100.00;98753.73;177114;1264;46046;-83
2024/04/16 03:53:47;;;;;;;2.80;2.40;;;;;;;5.59;99.86;98756.63;177781;1263;46166;-83
2024/04/16 03:57:51;;;;;;;4.20;2.10;;;;;;;5.50;99.20;98761.04;177954;1263;46085;-83
2024/04/16 04:01:53;;;;;;;2.20;1.60;;;;;;;5.47;98.75;98752.16;177305;1264;46434;-82
2024/04/16 04:05:56;;;;;;;3.60;1.10;;;;;;;5.44;98.02;98749.97;177032;1264;59315;-83
2024/04/16 04:10:00;;;;;;;2.30;2.10;;;;;;;5.42;97.20;98755.96;176760;1264;46049;-84
2024/04/16 04:14:03;;;;;;;1.30;1.10;;;;;;;5.44;96.15;98765.60;176364;1264;44860;-82
2024/04/16 04:18:06;;;;;;;3.20;1.50;;;;;;;5.47;94.88;98728.58;176665;1262;46089;-84
2024/04/16 04:22:10;;;;;;;2.10;1.50;;;;;;;5.50;95.40;98747.54;176651;1262;46487;-83
2024/04/16 04:26:13;;;;;;;2.00;1.80;;;;;;;5.60;94.73;98783.82;177509;1263;58293;-83
2024/04/16 04:30:16;;;;;;;4.70;1.10;;;;;;;5.89;93.37;98799.14;177377;1261;46219;-84
2024/04/16 04:34:18;;;;;;;3.90;2.40;;;;;;;6.32;90.84;98803.85;176660;1264;46101;-83
2024/04/16 04:38:22;;;;;;;1.50;1.00;;;;;;;6.65;87.72;98772.85;176597;1264;46241;-84
2024/04/16 04:42:28;;;;;;;7.10;3.70;;;;;;;6.81;87.04;98757.36;176644;1264;46141;-84
2024/04/16 04:46:31;;;;;;;4.60;1.70;;;;;;;7.38;84.90;98784.95;177067;1264;58770;-84
2024/04/16 04:50:35;;;;;;;3.60;1.80;;;;;;;7.94;81.87;98786.45;176852;1263;45872;-84
2024/04/16 04:54:38;;;;;;;1.90;1.00;;;;;;;8.39;79.56;98786.60;176497;1266;46291;-84
2024/04/16 04:58:41;;;;;;;4.90;1.60;;;;;;;8.83;76.86;98792.14;176862;1266;46155;-83
2024/04/16 05:02:43;;;;;;;1.80;1.30;;;;;;;9.07;75.24;98794.89;176593;1263;46452;-81
2024/04/16 05:06:46;;;;;;;2.40;0.90;;;;;;;9.41;73.49;98791.92;177050;1264;58233;-81
2024/04/16 05:10:51;;;;;;;2.90;1.10;;;;;;;9.44;73.53;98801.81;177369;1262;46162;-82
2024/04/16 05:14:54;;;;;;;2.00;0.50;;;;;;;9.38;73.22;98805.84;177469;1263;46163;-81
2024/04/16 05:18:57;;;;;;;2.70;1.30;;;;;;;9.40;72.83;98806.67;176694;1263;46164;-81
2024/04/16 05:22:59;;;;;;;2.40;0.90;;;;;;;8.89;74.47;98814.30;176805;1264;46016;-81
2024/04/16 05:27:03;;;;;;;0.60;0.50;;;;;;;8.41;76.26;98814.64;176978;1264;58286;-80
2024/04/16 05:31:05;;;;;;;3.10;0.70;;;;;;;8.06;78.46;98806.86;176447;1266;46125;-82
2024/04/16 05:35:08;;;;;;;1.80;0.50;;;;;;;7.85;80.04;98814.45;176656;1263;46249;-81
2024/04/16 05:39:11;;;;;;;2.60;1.20;;;;;;;7.72;81.13;98810.22;176454;1264;46019;-81
2024/04/16 05:43:14;;;;;;;2.20;1.20;;;;;;;7.68;81.57;98802.29;177249;1264;46224;-83
2024/04/16 05:47:17;;;;;;;3.50;0.70;;;;;;;7.69;81.41;98813.52;176532;1263;59616;-83
2024/04/16 05:51:20;;;;;;;3.30;0.60;;;;;;;7.70;82.66;98805.98;176818;1264;46033;-82
2024/04/16 05:55:22;;;;;;;0.70;0.60;;;;;;;7.73;81.51;98816.29;176719;1262;46136;-84
2024/04/16 05:59:25;;;;;;;1.40;1.10;;;;;;;7.76;80.01;98811.80;176739;1263;46096;-84
2024/04/16 06:03:28;;;;;;;0.90;0.70;;;;;;;7.77;80.05;98827.37;177202;1264;46228;-83
2024/04/16 06:07:31;;;;;;;3.80;1.70;;;;;;;7.78;80.00;98817.95;176494;1262;59511;-83
2024/04/16 06:11:34;;;;;;;1.70;0.70;;;;;;;7.77;80.20;98820.67;176941;1262;46004;-83
2024/04/16 06:15:37;;;;;;;2.90;0.80;;;;;;;7.72;80.89;98831.58;176664;1264;44765;-83
2024/04/16 06:19:43;;;;;;;5.10;1.30;;;;;;;7.70;79.83;98826.99;177162;1262;46052;-83
2024/04/16 06:23:46;;;;;;;3.10;0.70;;;;;;;7.69;80.43;98822.27;176880;1262;46224;-83
2024/04/16 06:27:51;;;;;;;2.00;1.30;;;;;;;7.70;80.72;98830.34;176898;1262;57883;-83
2024/04/16 06:31:54;;;;;;;1.50;0.60;;;;;;;7.74;79.13;98827.67;176777;1262;45982;-83
2024/04/16 06:35:57;;;;;;;1.50;0.90;;;;;;;7.83;80.44;98815.33;178009;1263;46090;-83
2024/04/16 06:40:00;;;;;;;1.10;0.70;;;;;;;7.90;78.80;98807.09;176756;1262;46137;-84
2024/04/16 06:44:03;;;;;;;4.10;1.40;;;;;;;7.98;77.52;98814.14;176954;1262;46035;-83
2024/04/16 06:48:06;;;;;;;4.20;0.80;;;;;;;8.03;77.38;98806.98;177049;1262;60284;-84
2024/04/16 06:52:09;;;;;;;3.10;0.70;;;;;;;8.01;77.16;98805.73;177439;1262;46018;-82
2024/04/16 06:56:12;;;;;;;0.80;0.50;;;;;;;8.04;78.31;98809.65;176780;1263;46030;-83
2024/04/16 07:00:15;;;;;;;6.60;1.20;;;;;;;8.06;78.80;98817.27;177600;1264;46022;-83
2024/04/16 07:04:18;;;;;;;1.90;0.70;;;;;;;8.12;81.23;98821.83;177184;1262;46090;-82
2024/04/16 07:08:22;;;;;;;3.60;1.50;;;;;;;8.17;79.41;98828.06;177204;1262;59651;-83
2024/04/16 07:12:25;;;;;;;2.30;0.60;;;;;;;8.29;78.49;98823.63;177615;1261;46108;-83
2024/04/16 07:16:29;;;;;;;1.40;1.20;;;;;;;8.38;76.92;98805.42;176823;1262;45100;-83
2024/04/16 07:20:48;;;;;;;2.60;0.70;;;;;;;8.55;77.38;98814.31;177120;1262;46138;-81
2024/04/16 07:24:51;;;;;;;1.90;0.70;;;;;;;8.69;78.30;98820.99;176788;1262;45903;-83
2024/04/16 07:28:53;;;;;;;1.40;1.00;;;;;;;8.76;75.40;98819.47;177324;1263;59669;-83
2024/04/16 07:32:56;;;;;;;3.30;1.50;;;;;;;8.79;75.26;98821.84;177056;1262;46237;-84
2024/04/16 07:36:59;;;;;;;1.30;0.90;;;;;;;8.87;74.28;98819.28;176958;1262;46257;-84
2024/04/16 07:41:02;;;;;;;1.90;1.40;;;;;;;9.09;77.39;98816.94;176680;1264;46127;-84
2024/04/16 07:45:06;;;;;;;3.30;1.20;;;;;;;9.44;75.42;98807.73;177224;1262;46157;-84
2024/04/16 07:49:08;;;;;;;6.00;1.20;;;;;;;9.75;74.80;98806.73;176976;1262;59657;-83
2024/04/16 07:53:11;;;;;;;7.00;1.80;;;;;;;9.78;72.00;98806.35;176715;1263;46080;-85
2024/04/16 07:57:14;;;;;;;3.00;1.50;;;;;;;9.80;72.49;98808.98;177002;1262;46118;-84
2024/04/16 08:01:17;;;;;;;3.30;1.00;;;;;;;10.18;74.36;98807.67;177110;1262;45985;-84
2024/04/16 08:05:21;;;;;;;3.60;1.20;;;;;;;10.26;71.46;98801.49;177308;1262;46973;-82
2024/04/16 08:09:24;;;;;;;4.30;1.20;;;;;;;10.51;70.04;98799.80;177285;1262;59351;-84
2024/04/16 08:13:32;;;;;;;3.20;1.20;;;;;;;10.72;69.64;98789.46;177911;1262;46741;-84
2024/04/16 08:17:36;;;;;;;2.30;1.30;;;;;;;10.97;68.61;98789.45;177411;1262;46432;-85
2024/04/16 08:21:39;;;;;;;3.90;1.60;;;;;;;11.22;67.48;98788.27;177117;1264;46006;-84
2024/04/16 08:25:41;;;;;;;3.40;1.20;;;;;;;11.27;65.28;98784.13;176819;1262;182242;-84
2024/04/16 08:29:45;;;;;;;2.90;1.20;;;;;;;11.34;64.38;98783.90;177101;1262;57086;-84
2024/04/16 08:33:48;;;;;;;8.20;1.10;;;;;;;11.48;65.08;98786.52;176769;1264;46005;-83
2024/04/16 08:37:52;;;;;;;4.40;0.90;;;;;;;11.57;64.18;98782.83;177131;1262;45986;-83
2024/04/16 08:41:59;;;;;;;3.40;1.10;;;;;;;11.64;61.85;98788.72;176686;1262;46155;-82
2024/04/16 08:46:02;;;;;;;6.70;1.60;;;;;;;11.75;60.52;98797.54;177083;1263;44843;-85
2024/04/16 08:50:06;;;;;;;8.50;1.30;;;;;;;11.60;59.05;98803.99;176831;1263;59812;-83
2024/04/16 08:54:11;;;;;;;3.00;1.00;;;;;;;11.64;60.85;98807.09;176965;1264;46127;-83
2024/04/16 08:58:14;;;;;;;4.60;1.10;;;;;;;11.38;59.44;98789.67;176406;1263;46131;-84
2024/04/16 09:02:19;;;;;;;2.00;0.60;;;;;;;11.48;59.89;98803.31;176703;1263;46134;-84
2024/04/16 09:06:24;;;;;;;2.60;1.50;;;;;;;11.83;61.91;98802.27;176754;1262;46129;-84
2024/04/16 09:10:27;;;;;;;2.90;1.00;;;;;;;11.87;58.09;98807.33;176465;1266;57906;-84
2024/04/16 09:14:30;;;;;;;1.20;0.80;;;;;;;11.64;56.36;98814.00;176397;1262;46279;-84
2024/04/16 09:18:33;;;;;;;4.40;1.70;;;;;;;11.29;58.29;98817.34;176957;1263;46131;-83
2024/04/16 09:22:36;;;;;;;4.10;1.20;;;;;;;11.41;62.77;98830.78;176684;1265;46196;-82
2024/04/16 09:26:39;;;;;;;2.20;0.80;;;;;;;11.65;60.68;98824.60;177728;1263;46126;-84
2024/04/16 09:30:53;;;;;;;2.60;1.30;;;;;;;11.92;62.56;98813.90;178143;1262;58446;-84
2024/04/16 09:34:56;;;;;;;4.00;1.60;;;;;;;11.69;59.82;98807.08;177460;1262;46161;-84
2024/04/16 09:38:59;;;;;;;4.20;0.90;;;;;;;11.62;61.45;98803.14;177103;1262;46144;-83
2024/04/16 09:43:04;;;;;;;3.20;1.20;;;;;;;11.71;62.68;98805.02;177193;1262;46117;-85
2024/04/16 09:47:09;;;;;;;1.40;0.70;;;;;;;11.93;62.10;98790.51;177242;1261;45949;-84
2024/04/16 09:51:17;;;;;;;1.50;1.10;;;;;;;12.05;58.19;98784.04;178990;1262;58195;-84
2024/04/16 09:55:22;;;;;;;2.60;1.30;;;;;;;12.23;61.61;98778.23;177526;1265;46015;-84
2024/04/16 09:59:26;;;;;;;1.30;0.60;;;;;;;12.34;58.61;98777.44;177647;1262;46257;-85
2024/04/16 10:03:30;;;;;;;3.50;1.20;;;;;;;12.24;57.16;98767.04;177288;1262;46134;-85
2024/04/16 10:07:33;;;;;;;6.30;1.50;;;;;;;12.24;60.06;98757.49;177295;1264;46149;-82
2024/04/16 10:11:37;;;;;;;1.00;0.50;;;;;;;12.39;58.70;98754.95;177228;1262;59684;-85
2024/04/16 10:15:44;;;;;;;1.10;1.00;;;;;;;12.52;59.30;98751.00;177338;1262;46207;-85
2024/04/16 10:19:47;;;;;;;1.30;0.70;;;;;;;12.35;58.03;98751.17;177177;1262;46126;-82
2024/04/16 10:24:00;;;;;;;6.90;1.40;;;;;;;12.56;62.14;98759.12;177567;1267;46048;-83
2024/04/16 10:28:04;;;;;;;6.10;1.00;;;;;;;12.75;59.91;98754.30;177590;1264;46746;-81
2024/04/16 10:32:09;;;;;;;2.20;1.00;;;;;;;12.78;55.73;98763.84;177025;1263;59291;-84
2024/04/16 10:36:15;;;;;;;3.10;1.40;;;;;;;12.81;58.33;98766.27;177582;1264;46058;-83
2024/04/16 10:40:31;;;;;;;5.80;1.80;;;;;;;12.81;57.74;98768.54;177046;1263;46147;-84
2024/04/16 10:44:34;;;;;;;2.00;1.00;;;;;;;12.98;59.18;98780.21;177511;1263;46109;-84
2024/04/16 10:48:37;;;;;;;2.40;1.20;;;;;;;13.04;59.11;98783.88;176642;1263;46191;-84
2024/04/16 10:52:40;;;;;;;4.30;1.30;;;;;;;13.04;61.62;98785.84;177117;1263;59391;-84
2024/04/16 10:56:43;;;;;;;7.20;1.50;;;;;;;12.49;67.85;98803.64;177923;1264;46145;-83
2024/04/16 11:00:46;;;;;;;2.60;1.10;;;;;;;11.99;70.95;98822.64;177750;1264;46152;-84
2024/04/16 11:04:52;;;;;;;1.70;0.60;;;;;;;11.45;71.65;98823.32;176809;1262;46008;-84
2024/04/16 11:08:55;;;;;;;1.90;0.60;;;;;;;11.15;74.26;98814.94;177142;1263;46127;-83
2024/04/16 11:12:57;;;;;;;1.80;0.30;;;;;;;11.42;75.62;98810.01;177061;1263;59676;-84
2024/04/16 11:17:04;;;;;;;3.60;1.80;;;;;;;11.69;72.63;98801.29;177001;1263;46121;-84
2024/04/16 11:21:07;;;;;;;2.10;1.00;;;;;;;11.93;72.59;98796.38;176942;1262;46260;-83
2024/04/16 11:25:14;;;;;;;1.70;0.50;;;;;;;12.18;67.56;98790.54;177515;1262;46109;-82
2024/04/16 11:29:18;;;;;;;3.80;1.20;;;;;;;12.20;66.61;98789.98;178405;1262;46685;-84
2024/04/16 11:33:23;;;;;;;2.60;0.70;;;;;;;12.13;70.21;98784.08;177332;1261;59002;-84
2024/04/16 11:37:39;;;;;;;1.80;0.70;;;;;;;12.30;73.58;98782.27;177224;1264;46010;-83
2024/04/16 11:41:44;;;;;;;;;;;;;;;12.57;69.46;98777.13;178028;1262;46138;-84
2024/04/16 11:45:47;;;;;;;1.60;0.90;;;;;;;12.63;65.22;98773.17;177850;1262;45824;-83
2024/04/16 11:49:50;;;;;;;0.80;0.60;;;;;;;12.57;66.00;98767.70;176565;1262;46187;-84
2024/04/16 11:53:52;;;;;;;3.10;1.30;;;;;;;12.71;67.00;98768.27;176756;1262;59278;-84
2024/04/16 11:57:55;;;;;;;1.10;0.60;;;;;;;12.86;67.27;98759.55;176647;1262;46127;-83
2024/04/16 12:01:58;;;;;;;7.30;1.00;;;;;;;13.06;65.77;98753.03;176866;1263;46052;-84
2024/04/16 12:06:01;;;;;;;5.20;1.70;;;;;;;13.25;64.98;98743.35;176968;1262;46189;-85
2024/04/16 12:10:05;;;;;;;2.40;1.30;;;;;;;13.59;67.10;98744.89;176943;1262;46102;-82
2024/04/16 12:14:08;;;;;;;2.00;0.70;;;;;;;13.82;62.92;98740.39;176644;1262;58350;-83
2024/04/16 12:18:13;;;;;;;0.80;0.50;;;;;;;13.91;57.93;98741.95;177118;1262;46186;-85
2024/04/16 12:22:16;;;;;;;2.70;0.90;;;;;;;13.52;55.18;98747.63;177630;1262;46124;-84
2024/04/16 12:26:19;;;;;;;1.30;1.00;;;;;;;12.76;55.96;98745.47;176805;1263;46596;-83
2024/04/16 12:30:22;;;;;;;1.20;0.90;;;;;;;12.68;61.71;98753.08;177495;1262;46056;-83
2024/04/16 12:34:25;;;;;;;1.80;0.80;;;;;;;12.84;59.45;98753.64;176749;1263;59585;-85
2024/04/16 12:38:29;;;;;;;2.50;1.30;;;;;;;12.65;60.52;98756.66;177176;1262;46177;-84
2024/04/16 12:42:32;;;;;;;2.00;0.80;;;;;;;12.48;59.37;98757.73;177958;1262;46015;-84
2024/04/16 12:46:35;;;;;;;1.90;0.70;;;;;;;12.25;57.18;98754.92;176761;1266;46155;-84
2024/04/16 12:50:38;;;;;;;1.50;0.90;;;;;;;11.91;58.17;98753.54;176924;1262;46168;-82
2024/04/16 12:54:41;;;;;;;1.20;0.80;;;;;;;11.69;56.73;98759.86;176595;1263;59097;-83
2024/04/16 12:58:44;;;;;;;2.00;1.10;;;;;;;11.60;58.68;98757.30;176525;1263;46143;-84
2024/04/16 13:02:47;;;;;;;2.70;0.60;;;;;;;11.97;56.60;98752.16;176404;1266;46100;-83
2024/04/16 13:06:55;;;;;;;1.20;0.60;;;;;;;12.21;55.42;98747.09;176523;1262;46051;-85
2024/04/16 13:10:58;;;;;;;2.90;0.90;;;;;;;12.16;56.24;98733.79;176453;1264;46055;-83
2024/04/16 13:15:01;;;;;;;1.30;0.90;;;;;;;12.14;55.18;98727.69;176405;1263;57947;-84
2024/04/16 13:19:04;;;;;;;0.90;0.40;;;;;;;12.49;53.59;98717.18;176840;1262;45973;-84
2024/04/16 13:23:07;;;;;;;2.50;0.60;;;;;;;12.93;51.73;98718.27;176859;1262;44491;-81
2024/04/16 13:27:10;;;;;;;0.80;0.40;;;;;;;13.25;50.27;98714.91;177054;1262;46021;-84
2024/04/16 13:31:13;;;;;;;2.60;0.60;;;;;;;13.56;50.50;98716.96;177183;1265;46070;-83
2024/04/16 13:35:15;;;;;;;4.70;1.10;;;;;;;13.67;50.64;98721.07;176437;1263;59296;-85
2024/04/16 13:39:18;;;;;;;0.90;0.40;;;;;;;13.77;52.29;98714.10;176688;1262;46100;-85
2024/04/16 13:43:21;;;;;;;4.90;1.30;;;;;;;13.83;51.18;98713.23;176548;1262;46203;-85
2024/04/16 13:47:24;;;;;;;2.80;0.60;;;;;;;13.76;50.10;98706.52;176625;1264;46137;-84
2024/04/16 13:51:27;;;;;;;2.30;0.40;;;;;;;13.95;48.82;98702.68;176597;1262;46027;-84
2024/04/16 13:55:30;;;;;;;0.80;0.40;;;;;;;13.87;48.68;98696.66;176578;1264;60474;-81
2024/04/16 13:59:33;;;;;;;1.50;0.50;;;;;;;14.01;52.16;98695.52;176214;1262;46038;-83
2024/04/16 14:03:36;;;;;;;3.30;0.90;;;;;;;13.69;48.16;98694.17;176454;1262;46052;-81
2024/04/16 14:07:39;;;;;;;4.80;1.10;;;;;;;13.65;49.27;98689.48;176789;1262;46232;-84
2024/04/16 14:11:42;;;;;;;1.00;0.70;;;;;;;13.71;48.27;98691.86;176784;1265;46563;-85
2024/04/16 14:15:45;;;;;;;1.20;0.20;;;;;;;14.02;49.15;98683.27;176599;1262;57963;-85
2024/04/16 14:19:50;;;;;;;2.00;0.50;;;;;;;13.89;47.42;98674.83;177172;1264;45995;-80
2024/04/16 14:23:53;;;;;;;1.30;0.50;;;;;;;14.02;48.56;98671.06;177093;1262;46050;-85
2024/04/16 14:27:56;;;;;;;2.60;0.60;;;;;;;14.20;49.09;98675.62;177145;1265;46075;-84
2024/04/16 14:32:00;;;;;;;3.00;0.50;;;;;;;14.45;50.50;98669.89;177376;1262;44383;-84
2024/04/16 14:36:03;;;;;;;2.50;0.40;;;;;;;14.56;48.44;98675.48;176967;1264;58309;-83
2024/04/16 14:40:07;;;;;;;1.70;1.10;;;;;;;14.44;48.87;98678.75;176909;1262;46139;-85
2024/04/16 14:44:10;;;;;;;1.40;0.50;;;;;;;14.01;49.90;98688.90;177058;1263;46214;-84
2024/04/16 14:48:12;;;;;;;2.20;1.00;;;;;;;13.88;50.01;98682.53;176682;1262;46153;-84
2024/04/16 14:52:15;;;;;;;1.80;0.60;;;;;;;13.81;49.41;98684.75;176836;1261;46058;-83
2024/04/16 14:56:19;;;;;;;2.10;0.70;;;;;;;13.69;49.98;98678.73;177337;1262;59359;-83
2024/04/16 15:00:21;;;;;;;7.20;0.50;;;;;;;13.62;51.91;98679.21;176564;1262;46160;-82
2024/04/16 15:04:24;;;;;;;3.20;0.50;;;;;;;13.43;49.63;98679.42;176487;1267;46476;-83
2024/04/16 15:08:27;;;;;;;0.60;0.20;;;;;;;13.19;51.13;98684.98;176603;1263;46160;-83
2024/04/16 15:12:30;;;;;;;0.60;0.20;;;;;;;13.09;52.19;98687.55;176850;1263;46115;-83
2024/04/16 15:16:32;;;;;;;4.50;0.70;;;;;;;12.86;51.32;98688.86;177050;1262;60208;-84
2024/04/16 15:20:35;;;;;;;3.20;0.40;;;;;;;12.91;53.08;98694.94;176816;1261;46222;-83
2024/04/16 15:24:38;;;;;;;1.80;0.70;;;;;;;13.09;52.52;98690.23;176825;1262;46760;-83
2024/04/16 15:28:41;;;;;;;0.30;0.30;;;;;;;13.27;51.82;98693.14;176585;1262;46183;-83
2024/04/16 15:32:45;;;;;;;2.60;0.80;;;;;;;13.27;50.52;98687.15;176931;1262;46136;-83
2024/04/16 15:36:48;;;;;;;1.20;0.50;;;;;;;13.12;51.20;98691.77;176661;1265;58340;-84
2024/04/16 15:40:50;;;;;;;8.30;0.90;;;;;;;12.90;52.50;98697.41;176736;1263;46237;-83
2024/04/16 15:44:53;;;;;;;6.20;1.20;;;;;;;12.60;52.25;98698.30;177247;1262;46026;-82
2024/04/16 15:48:59;;;;;;;2.30;0.90;;;;;;;12.58;54.05;98692.93;176551;1262;46133;-82
2024/04/16 15:53:02;;;;;;;2.20;0.80;;;;;;;12.60;54.86;98689.12;176865;1262;45992;-85
2024/04/16 15:57:05;;;;;;;3.20;1.30;;;;;;;12.58;55.46;98678.66;176880;1265;58147;-85
2024/04/16 16:01:08;;;;;;;2.00;0.60;;;;;;;12.48;55.10;98681.56;177219;1263;46563;-82
2024/04/16 16:05:11;;;;;;;0.60;0.60;;;;;;;12.50;55.20;98678.55;177331;1262;46047;-84
2024/04/16 16:09:14;;;;;;;5.60;0.70;;;;;;;12.62;54.95;98674.50;177295;1265;46227;-84
2024/04/16 16:13:17;;;;;;;58.00;8.50;;;;;;;12.81;54.46;98668.89;176775;1262;45169;-85
2024/04/16 16:17:20;;;;;;;3.70;0.60;;;;;;;13.02;53.84;98665.63;176789;1262;58378;-85
2024/04/16 16:21:23;;;;;;;0.90;0.50;;;;;;;13.05;53.33;98659.59;176601;1265;45975;-84
2024/04/16 16:25:26;;;;;;;2.20;0.90;;;;;;;13.04;53.00;98663.48;176764;1266;46108;-85
2024/04/16 16:29:28;;;;;;;2.00;0.60;;;;;;;13.01;54.18;98668.61;176608;1267;46170;-83
2024/04/16 16:33:31;;;;;;;2.00;0.30;;;;;;;12.86;53.94;98675.39;176632;1268;46104;-83
2024/04/16 16:37:35;;;;;;;5.60;0.60;;;;;;;12.66;54.80;98678.13;176552;1265;58969;-84
2024/04/16 16:41:38;;;;;;;1.10;0.70;;;;;;;12.44;55.80;98680.69;176378;1263;46027;-84
2024/04/16 16:45:41;;;;;;;0.90;0.30;;;;;;;12.13;54.63;98676.89;176591;1264;46218;-83
2024/04/16 16:49:44;;;;;;;5.40;0.60;;;;;;;11.82;54.78;98678.77;176550;1266;46039;-85
2024/04/16 16:53:47;;;;;;;4.70;0.40;;;;;;;11.41;57.36;98673.48;176487;1267;46108;-83
2024/04/16 16:57:50;;;;;;;2.80;0.70;;;;;;;11.02;56.67;98672.22;176266;1263;59289;-83
2024/04/16 17:01:53;;;;;;;1.30;0.60;;;;;;;10.89;58.83;98676.29;176564;1266;46136;-84
2024/04/16 17:05:56;;;;;;;2.30;0.80;;;;;;;10.70;59.85;98674.23;177104;1263;46000;-85
2024/04/16 17:09:59;;;;;;;1.10;0.20;;;;;;;10.60;59.39;98675.45;177069;1265;46239;-84
2024/04/16 17:14:02;;;;;;;0.40;0.40;;;;;;;10.59;58.94;98676.70;176681;1266;46150;-83
2024/04/16 17:18:06;;;;;;;8.50;1.10;;;;;;;10.60;59.62;98677.66;176619;1265;57961;-84
2024/04/16 17:22:09;;;;;;;1.70;0.70;;;;;;;10.55;60.83;98681.54;176749;1266;46446;-84
2024/04/16 17:26:13;;;;;;;1.20;0.70;;;;;;;10.49;61.59;98674.90;176856;1263;46046;-83
2024/04/16 17:30:16;;;;;;;16.50;3.80;;;;;;;10.38;63.17;98672.67;176598;1263;46054;-84
2024/04/16 17:34:18;;;;;;;3.90;1.40;;;;;;;10.28;64.78;98675.89;176928;1263;46140;-83
2024/04/16 17:38:22;;;;;;;11.60;2.10;;;;;;;10.11;67.26;98676.83;178010;1263;57941;-84
2024/04/16 17:42:24;;;;;;;2.20;0.90;;;;;;;9.93;69.43;98681.95;176930;1262;46174;-84
2024/04/16 17:46:27;;;;;;;4.60;1.30;;;;;;;9.82;70.36;98681.52;176692;1262;46020;-84
2024/04/16 17:50:30;;;;;;;0.50;0.40;;;;;;;9.77;72.65;98686.81;176209;1263;46144;-84
2024/04/16 17:54:33;;;;;;;2.40;1.00;;;;;;;9.70;73.84;98687.59;176611;1267;46141;-83
2024/04/16 17:58:37;;;;;;;6.80;1.10;;;;;;;9.55;74.89;98691.03;176425;1265;58310;-84
2024/04/16 18:02:42;;;;;;;4.60;0.70;;;;;;;9.40;75.97;98687.27;177113;1265;46208;-82
2024/04/16 18:06:47;;;;;;;2.80;1.70;;;;;;;9.30;76.64;98688.77;176563;1263;46705;-83
2024/04/16 18:10:50;;;;;;;4.00;0.80;;;;;;;9.21;77.55;98692.30;176360;1266;46234;-84
2024/04/16 18:14:53;;;;;;;1.50;0.80;;;;;;;9.18;77.75;98694.94;176512;1262;46000;-83
2024/04/16 18:18:56;;;;;;;1.00;0.70;;;;;;;9.15;77.92;98701.78;176610;1267;59265;-84
2024/04/16 18:22:59;;;;;;;2.00;1.10;;;;;;;9.19;78.01;98707.27;176850;1263;46342;-81
2024/04/16 18:27:02;;;;;;;8.50;1.50;;;;;;;9.25;77.70;98712.16;176654;1262;46103;-84
2024/04/16 18:31:06;;;;;;;1.10;0.80;;;;;;;9.27;78.61;98720.34;176783;1263;46204;-83
2024/04/16 18:35:09;;;;;;;2.90;2.60;;;;;;;9.30;78.91;98727.38;176772;1263;46116;-84
2024/04/16 18:39:12;;;;;;;4.00;1.70;;;;;;;9.27;80.71;98730.62;176914;1264;60238;-84
2024/04/16 18:43:15;;;;;;;4.10;1.80;;;;;;;9.27;81.88;98735.10;176538;1263;46248;-83
2024/04/16 18:47:20;;;;;;;3.10;1.90;;;;;;;9.25;82.99;98739.02;176411;1263;46038;-83
2024/04/16 18:51:24;;;;;;;3.20;2.00;;;;;;;9.24;83.87;98742.23;176529;1263;46011;-83
2024/04/16 18:55:27;;;;;;;2.70;1.60;;;;;;;9.23;84.15;98743.78;176642;1263;46194;-83